createdAt,value
2023-09-07T00:01:08.042Z,16.70
2023-09-07T00:03:35.217Z,16.68
2023-09-07T00:06:02.288Z,16.60
2023-09-07T00:08:29.707Z,16.52
2023-09-07T00:10:57.016Z,16.49
2023-09-07T00:13:24.007Z,16.48
2023-09-07T00:15:51.042Z,16.48
2023-09-07T00:18:20.219Z,16.48
2023-09-07T00:20:47.487Z,16.45
2023-09-07T00:23:14.565Z,16.36
2023-09-07T00:25:41.578Z,16.34
2023-09-07T00:28:08.771Z,16.28
2023-09-07T00:30:35.837Z,16.23
2023-09-07T00:33:02.937Z,16.21
2023-09-07T00:35:30.077Z,16.19
2023-09-07T00:37:57.125Z,16.16
2023-09-07T00:40:24.705Z,16.11
2023-09-07T00:42:51.772Z,16.10
2023-09-07T00:45:18.809Z,16.10
2023-09-07T00:47:46.162Z,16.07
2023-09-07T00:50:17.693Z,16.04
2023-09-07T00:52:44.675Z,16.00
2023-09-07T00:55:11.708Z,15.93
2023-09-07T00:57:40.805Z,15.92
2023-09-07T01:00:09.191Z,15.91
2023-09-07T01:02:36.766Z,15.89
2023-09-07T01:05:06.736Z,15.83
2023-09-07T01:07:37.631Z,15.80
2023-09-07T01:10:05.512Z,15.79
2023-09-07T01:12:32.641Z,15.75
2023-09-07T01:14:59.736Z,15.74
2023-09-07T01:17:27.180Z,15.68
2023-09-07T01:19:54.331Z,15.60
2023-09-07T01:22:24.133Z,15.54
2023-09-07T01:24:52.441Z,15.50
2023-09-07T01:27:20.004Z,15.51
2023-09-07T01:29:46.947Z,15.49
2023-09-07T01:32:14.980Z,15.46
2023-09-07T01:34:42.241Z,15.46
2023-09-07T01:37:09.725Z,15.48
2023-09-07T01:39:37.257Z,15.49
2023-09-07T01:42:04.427Z,15.50
2023-09-07T01:44:31.498Z,15.49
2023-09-07T01:46:58.663Z,15.46
2023-09-07T01:49:25.973Z,15.41
2023-09-07T01:51:53.802Z,15.38
2023-09-07T01:54:22.480Z,15.40
2023-09-07T01:56:49.629Z,15.37
2023-09-07T01:59:16.690Z,15.36
2023-09-07T02:01:43.818Z,15.36
2023-09-07T02:04:11.044Z,15.37
2023-09-07T02:06:38.063Z,15.37
2023-09-07T02:09:05.709Z,15.35
2023-09-07T02:11:32.974Z,15.38
2023-09-07T02:14:00.152Z,15.34
2023-09-07T02:16:28.116Z,15.30
2023-09-07T02:19:02.451Z,15.29
2023-09-07T02:21:29.618Z,15.28
2023-09-07T02:23:56.710Z,15.26
2023-09-07T02:26:23.845Z,15.29
2023-09-07T02:28:50.805Z,15.34
2023-09-07T02:31:18.390Z,15.37
2023-09-07T02:33:45.447Z,15.40
2023-09-07T02:36:13.195Z,15.42
2023-09-07T02:38:40.272Z,15.43
2023-09-07T02:41:07.431Z,15.42
2023-09-07T02:43:34.583Z,15.44
2023-09-07T02:46:01.988Z,15.47
2023-09-07T02:48:29.113Z,15.50
2023-09-07T02:50:59.911Z,15.55
2023-09-07T02:53:27.290Z,15.62
2023-09-07T02:55:54.353Z,15.62
2023-09-07T02:58:23.305Z,15.62
2023-09-07T03:00:51.102Z,15.66
2023-09-07T03:03:19.569Z,15.69
2023-09-07T03:05:46.846Z,15.71
2023-09-07T03:08:14.682Z,15.67
2023-09-07T03:10:42.265Z,15.68
2023-09-07T03:13:09.706Z,15.66
2023-09-07T03:15:37.158Z,15.67
2023-09-07T03:18:07.235Z,15.65
2023-09-07T03:20:35.750Z,15.63
2023-09-07T03:23:03.842Z,15.57
2023-09-07T03:25:31.734Z,15.58
2023-09-07T03:27:58.941Z,15.58
2023-09-07T03:30:26.313Z,15.55
2023-09-07T03:32:54.303Z,15.53
2023-09-07T03:35:21.574Z,15.54
2023-09-07T03:37:48.786Z,15.51
2023-09-07T03:40:15.897Z,15.49
2023-09-07T03:42:44.636Z,15.52
2023-09-07T03:45:12.204Z,15.55
2023-09-07T03:47:39.709Z,15.54
2023-09-07T03:50:07.568Z,15.49
2023-09-07T03:52:34.773Z,15.49
2023-09-07T03:55:02.674Z,15.48
2023-09-07T03:57:30.270Z,15.49
2023-09-07T03:59:57.919Z,15.50
2023-09-07T04:02:25.248Z,15.56
2023-09-07T04:04:56.601Z,15.60
2023-09-07T04:07:23.754Z,15.65
2023-09-07T04:09:51.344Z,15.68
2023-09-07T04:12:18.728Z,15.73
2023-09-07T04:14:46.028Z,15.74
2023-09-07T04:17:13.573Z,15.80
2023-09-07T04:19:41.150Z,15.88
2023-09-07T04:22:08.338Z,15.95
2023-09-07T04:24:35.346Z,16.00
2023-09-07T04:27:02.914Z,16.02
2023-09-07T04:29:30.361Z,16.09
2023-09-07T04:31:57.929Z,16.12
2023-09-07T04:34:25.573Z,16.15
2023-09-07T04:36:53.446Z,16.13
2023-09-07T04:39:20.632Z,16.15
2023-09-07T04:41:47.971Z,16.10
2023-09-07T04:44:16.209Z,16.07
2023-09-07T04:46:43.919Z,16.10
2023-09-07T04:49:11.694Z,16.13
2023-09-07T04:51:38.773Z,16.13
2023-09-07T04:54:06.751Z,16.06
2023-09-07T04:56:34.163Z,16.06
2023-09-07T04:59:01.804Z,16.15
2023-09-07T05:01:29.694Z,16.17
2023-09-07T05:03:56.983Z,16.17
2023-09-07T05:06:24.676Z,16.34
2023-09-07T05:08:52.576Z,16.47
2023-09-07T05:11:19.703Z,16.61
2023-09-07T05:13:47.147Z,16.89
2023-09-07T05:16:14.294Z,17.36
2023-09-07T05:18:42.595Z,17.95
2023-09-07T05:21:16.543Z,18.60
2023-09-07T05:23:44.170Z,19.16
2023-09-07T05:26:11.827Z,19.47
2023-09-07T05:28:41.284Z,19.37
2023-09-07T05:31:09.068Z,19.28
2023-09-07T05:33:36.663Z,19.31
2023-09-07T05:36:04.132Z,19.47
2023-09-07T05:38:33.971Z,19.56
2023-09-07T05:41:01.803Z,19.67
2023-09-07T05:43:29.181Z,19.61
2023-09-07T05:45:57.004Z,19.45
2023-09-07T05:48:24.569Z,19.54
2023-09-07T05:50:51.940Z,19.81
2023-09-07T05:53:22.349Z,19.95
2023-09-07T05:55:49.699Z,19.86
2023-09-07T05:58:17.462Z,19.79
2023-09-07T06:00:45.135Z,19.49
2023-09-07T06:03:12.542Z,19.34
2023-09-07T06:05:40.799Z,19.20
2023-09-07T06:08:08.900Z,19.26
2023-09-07T06:13:06.834Z,19.36
2023-09-07T06:15:34.540Z,19.48
2023-09-07T06:18:03.130Z,19.66
2023-09-07T06:20:30.695Z,20.06
2023-09-07T06:23:00.153Z,20.48
2023-09-07T06:25:28.802Z,20.56
2023-09-07T06:27:57.355Z,20.41
2023-09-07T06:30:25.229Z,20.37
2023-09-07T06:32:53.935Z,20.51
2023-09-07T06:35:21.264Z,20.49
2023-09-07T06:37:48.787Z,20.67
2023-09-07T06:40:19.490Z,20.76
2023-09-07T06:42:50.540Z,21.22
2023-09-07T06:45:20.509Z,21.79
2023-09-07T06:47:50.714Z,22.08
2023-09-07T06:50:18.364Z,22.39
2023-09-07T06:52:45.461Z,22.53
2023-09-07T06:55:12.407Z,22.47
2023-09-07T06:57:39.747Z,22.43
2023-09-07T07:00:09.009Z,22.67
2023-09-07T07:02:37.518Z,22.92
2023-09-07T07:05:05.045Z,23.06
2023-09-07T07:07:33.497Z,22.85
2023-09-07T07:10:00.603Z,22.60
2023-09-07T07:12:27.962Z,22.36
2023-09-07T07:14:56.350Z,22.22
2023-09-07T07:17:23.666Z,22.50
2023-09-07T07:19:51.020Z,22.70
2023-09-07T07:22:21.160Z,22.73
2023-09-07T07:24:49.850Z,23.03
2023-09-07T07:27:17.161Z,23.17
2023-09-07T07:29:44.908Z,22.96
2023-09-07T07:32:12.377Z,22.97
2023-09-07T07:34:39.664Z,22.97
2023-09-07T07:37:07.546Z,22.93
2023-09-07T07:39:35.044Z,22.97
2023-09-07T07:42:04.436Z,23.03
2023-09-07T07:44:31.825Z,22.97
2023-09-07T07:46:59.158Z,23.00
2023-09-07T07:49:26.348Z,23.26
2023-09-07T07:51:56.811Z,23.73
2023-09-07T07:54:26.030Z,23.83
2023-09-07T07:56:53.904Z,24.12
2023-09-07T07:59:21.528Z,24.19
2023-09-07T08:01:48.654Z,23.84
2023-09-07T08:04:15.988Z,23.57
2023-09-07T08:06:43.220Z,23.58
2023-09-07T08:09:11.399Z,23.56
2023-09-07T08:11:40.812Z,23.55
2023-09-07T08:14:08.181Z,23.52
2023-09-07T08:16:35.578Z,23.49
2023-09-07T08:19:02.856Z,23.62
2023-09-07T08:21:30.119Z,23.86
2023-09-07T08:23:57.655Z,23.92
2023-09-07T08:26:24.642Z,23.91
2023-09-07T08:28:51.701Z,23.54
2023-09-07T08:31:23.238Z,23.31
2023-09-07T08:33:52.864Z,23.67
2023-09-07T08:36:23.687Z,23.84
2023-09-07T08:38:56.941Z,23.53
2023-09-07T08:41:24.061Z,23.12
2023-09-07T08:43:51.265Z,22.75
2023-09-07T08:46:22.358Z,22.43
2023-09-07T08:48:50.626Z,22.45
2023-09-07T08:51:19.234Z,22.87
2023-09-07T08:53:47.975Z,22.96
2023-09-07T08:56:15.820Z,22.63
2023-09-07T08:58:46.187Z,22.33
2023-09-07T09:01:14.436Z,21.87
2023-09-07T09:03:41.720Z,21.52
2023-09-07T09:06:08.832Z,21.37
2023-09-07T09:08:53.628Z,21.12
2023-09-07T09:11:21.803Z,20.90
2023-09-07T09:13:49.868Z,20.77
2023-09-07T09:16:18.891Z,20.73
2023-09-07T09:18:50.110Z,20.68
2023-09-07T09:21:17.692Z,20.63
2023-09-07T09:23:44.700Z,20.66
2023-09-07T09:26:12.116Z,20.64
2023-09-07T09:28:39.400Z,20.55
2023-09-07T09:31:11.195Z,20.49
2023-09-07T09:33:38.871Z,20.47
2023-09-07T09:36:07.166Z,20.41
2023-09-07T09:38:35.970Z,20.29
2023-09-07T09:41:04.486Z,20.27
2023-09-07T09:43:31.471Z,20.32
2023-09-07T09:45:59.603Z,20.33
2023-09-07T09:48:27.041Z,20.39
2023-09-07T09:50:54.114Z,20.39
2023-09-07T09:53:22.283Z,20.37
2023-09-07T09:55:49.720Z,20.43
2023-09-07T09:58:17.535Z,20.48
2023-09-07T10:00:49.583Z,20.40
2023-09-07T10:03:32.536Z,20.23
2023-09-07T10:06:12.423Z,20.22
2023-09-07T10:08:39.412Z,20.21
2023-09-07T10:11:10.821Z,20.31
2023-09-07T10:13:37.834Z,20.36
2023-09-07T10:16:09.117Z,20.38
2023-09-07T10:18:37.009Z,20.38
2023-09-07T10:21:04.402Z,20.34
2023-09-07T10:23:42.506Z,20.33
2023-09-07T10:26:19.688Z,20.39
2023-09-07T10:28:47.259Z,20.28
2023-09-07T10:31:19.327Z,20.14
2023-09-07T10:33:47.038Z,20.07
2023-09-07T10:36:27.403Z,20.18
2023-09-07T10:38:57.170Z,20.36
2023-09-07T10:41:24.165Z,20.46
2023-09-07T10:43:57.658Z,20.44
2023-09-07T10:46:24.913Z,20.43
2023-09-07T10:48:52.843Z,20.43
2023-09-07T10:51:20.564Z,20.46
2023-09-07T10:53:47.513Z,20.50
2023-09-07T10:56:14.666Z,20.49
2023-09-07T10:58:43.250Z,20.52
2023-09-07T11:01:10.683Z,20.56
2023-09-07T11:03:38.293Z,20.57
2023-09-07T11:06:14.123Z,20.57
2023-09-07T11:08:41.172Z,20.52
2023-09-07T11:11:09.777Z,20.43
2023-09-07T11:13:37.060Z,20.40
2023-09-07T11:16:04.983Z,20.41
2023-09-07T11:18:32.272Z,20.41
2023-09-07T11:21:01.062Z,20.49
2023-09-07T11:23:28.888Z,20.51
2023-09-07T11:25:55.862Z,20.50
2023-09-07T11:28:25.969Z,20.50
2023-09-07T11:30:54.773Z,20.51
2023-09-07T11:33:22.774Z,20.55
2023-09-07T11:35:50.239Z,20.56
2023-09-07T11:38:17.939Z,20.63
2023-09-07T11:40:46.295Z,20.63
2023-09-07T11:43:14.111Z,20.59
2023-09-07T11:45:41.905Z,20.55
2023-09-07T11:48:10.577Z,20.50
2023-09-07T11:50:38.167Z,20.48
2023-09-07T11:53:06.056Z,20.46
2023-09-07T11:55:33.650Z,20.42
2023-09-07T11:58:02.133Z,20.41
2023-09-07T12:00:30.976Z,20.45
2023-09-07T12:02:58.572Z,20.42
2023-09-07T12:05:25.774Z,20.36
2023-09-07T12:07:54.187Z,20.28
2023-09-07T12:10:21.712Z,20.23
2023-09-07T12:12:49.289Z,20.18
2023-09-07T12:15:16.326Z,20.12
2023-09-07T12:17:44.006Z,20.18
2023-09-07T12:20:12.169Z,20.28
2023-09-07T12:22:39.569Z,20.36
2023-09-07T12:25:16.013Z,20.44
2023-09-07T12:27:54.331Z,20.47
2023-09-07T12:30:24.108Z,20.39
2023-09-07T12:32:52.588Z,20.34
2023-09-07T12:35:21.159Z,20.22
2023-09-07T12:37:48.401Z,20.16
2023-09-07T12:40:16.099Z,20.15
2023-09-07T12:42:44.684Z,20.18
2023-09-07T12:45:12.015Z,20.19
2023-09-07T12:47:39.931Z,20.18
2023-09-07T12:50:07.995Z,20.21
2023-09-07T12:52:37.601Z,20.22
2023-09-07T12:55:08.896Z,20.21
2023-09-07T12:57:37.367Z,20.19
2023-09-07T13:00:08.425Z,20.17
2023-09-07T13:02:35.770Z,20.14
2023-09-07T13:05:06.520Z,20.15
2023-09-07T13:07:33.909Z,20.13
2023-09-07T13:10:03.656Z,20.07
2023-09-07T13:12:32.628Z,20.07
2023-09-07T13:14:59.724Z,20.06
2023-09-07T13:17:26.836Z,20.05
2023-09-07T13:19:53.904Z,20.05
2023-09-07T13:22:20.847Z,20.03
2023-09-07T13:24:47.940Z,20.06
2023-09-07T13:27:14.879Z,20.08
2023-09-07T13:29:41.883Z,20.10
2023-09-07T13:32:10.139Z,20.09
2023-09-07T13:34:37.215Z,20.05
2023-09-07T13:37:04.342Z,20.03
2023-09-07T13:39:31.307Z,20.05
2023-09-07T13:41:58.391Z,20.06
2023-09-07T13:44:25.474Z,20.00
2023-09-07T13:46:54.658Z,20.03
2023-09-07T13:49:21.908Z,20.05
2023-09-07T13:51:49.108Z,20.03
2023-09-07T13:54:16.811Z,20.02
2023-09-07T13:56:46.071Z,19.94
2023-09-07T13:59:13.150Z,19.88
2023-09-07T14:01:40.105Z,19.85
2023-09-07T14:04:07.543Z,19.88
2023-09-07T14:06:34.726Z,19.91
2023-09-07T14:09:01.777Z,19.93
2023-09-07T14:11:28.788Z,19.88
2023-09-07T14:13:56.267Z,19.83
2023-09-07T14:16:24.141Z,19.82
2023-09-07T14:18:51.541Z,19.81
2023-09-07T14:21:19.022Z,19.75
2023-09-07T14:23:46.678Z,19.73
2023-09-07T14:26:14.027Z,19.73
2023-09-07T14:28:41.013Z,19.76
2023-09-07T14:31:09.384Z,19.73
2023-09-07T14:33:40.134Z,19.71
2023-09-07T14:36:08.024Z,19.71
2023-09-07T14:38:41.798Z,19.67
2023-09-07T14:41:12.685Z,19.60
2023-09-07T14:43:39.893Z,19.52
2023-09-07T14:46:07.208Z,19.48
2023-09-07T14:48:34.290Z,19.48
2023-09-07T14:51:01.329Z,19.46
2023-09-07T14:53:28.405Z,19.44
2023-09-07T14:55:55.322Z,19.40
2023-09-07T14:58:22.494Z,19.36
2023-09-07T15:00:49.516Z,19.30
2023-09-07T15:03:19.637Z,19.27
2023-09-07T15:05:46.656Z,19.24
2023-09-07T15:08:13.909Z,19.22
2023-09-07T15:10:41.664Z,19.19
2023-09-07T15:13:09.459Z,19.16
2023-09-07T15:15:41.105Z,19.13
2023-09-07T15:18:08.744Z,19.09
2023-09-07T15:20:36.555Z,19.04
2023-09-07T15:23:04.687Z,19.04
2023-09-07T15:25:32.045Z,19.01
2023-09-07T15:27:59.290Z,18.98
2023-09-07T15:30:26.360Z,18.94
2023-09-07T15:32:53.546Z,18.89
2023-09-07T15:35:20.784Z,18.81
2023-09-07T15:37:48.265Z,18.76
2023-09-07T15:40:15.393Z,18.71
2023-09-07T15:42:42.635Z,18.67
2023-09-07T15:45:10.391Z,18.60
2023-09-07T15:47:38.611Z,18.53
2023-09-07T15:50:08.371Z,18.45
2023-09-07T15:52:45.135Z,18.35
2023-09-07T15:55:12.244Z,18.28
2023-09-07T15:57:39.394Z,18.21
2023-09-07T16:00:08.370Z,18.15
2023-09-07T16:02:39.895Z,18.09
2023-09-07T16:05:07.379Z,18.03
2023-09-07T16:07:34.950Z,17.96
2023-09-07T16:10:02.072Z,17.88
2023-09-07T16:12:29.375Z,17.84
2023-09-07T16:14:56.478Z,17.78
2023-09-07T16:17:23.669Z,17.72
2023-09-07T16:19:50.685Z,17.65
2023-09-07T16:22:17.778Z,17.59
2023-09-07T16:24:45.376Z,17.54
2023-09-07T16:27:12.347Z,17.48
2023-09-07T16:29:44.577Z,17.40
2023-09-07T16:32:13.664Z,17.33
2023-09-07T16:34:42.149Z,17.29
2023-09-07T16:37:09.333Z,17.23
2023-09-07T16:39:36.486Z,17.14
2023-09-07T16:42:06.329Z,17.06
2023-09-07T16:44:33.552Z,16.99
2023-09-07T16:47:00.579Z,16.94
2023-09-07T16:49:27.632Z,16.90
2023-09-07T16:51:54.770Z,16.82
2023-09-07T16:54:21.812Z,16.78
2023-09-07T16:56:49.192Z,16.70
2023-09-07T17:01:47.540Z,16.55
2023-09-07T17:04:14.583Z,16.49
2023-09-07T17:06:42.679Z,16.42
2023-09-07T17:09:10.026Z,16.37
2023-09-07T17:11:37.223Z,16.32
2023-09-07T17:14:04.558Z,16.27
2023-09-07T17:16:31.823Z,16.25
2023-09-07T17:18:59.237Z,16.21
2023-09-07T17:21:26.237Z,16.13
2023-09-07T17:23:53.252Z,16.04
2023-09-07T17:26:20.286Z,15.95
2023-09-07T17:28:47.610Z,15.91
2023-09-07T17:31:15.978Z,15.84
2023-09-07T17:33:43.371Z,15.82
2023-09-07T17:36:17.781Z,15.78
2023-09-07T17:38:44.961Z,15.74
2023-09-07T17:41:12.709Z,15.74
2023-09-07T17:43:40.941Z,15.78
2023-09-07T17:46:09.309Z,15.78
2023-09-07T17:48:36.893Z,15.78
2023-09-07T17:51:04.896Z,15.79
2023-09-07T17:53:34.741Z,15.78
2023-09-07T17:56:08.736Z,15.75
2023-09-07T17:58:36.794Z,15.70
2023-09-07T18:01:04.302Z,15.65
2023-09-07T18:03:31.736Z,15.57
2023-09-07T18:05:58.800Z,15.46
2023-09-07T18:08:25.864Z,15.40
2023-09-07T18:10:52.865Z,15.31
2023-09-07T18:13:19.995Z,15.22
2023-09-07T18:15:47.667Z,15.15
2023-09-07T18:18:15.728Z,15.08
2023-09-07T18:20:43.107Z,14.97
2023-09-07T18:23:10.331Z,14.89
2023-09-07T18:25:39.688Z,14.82
2023-09-07T18:30:22.811Z,14.73
2023-09-07T18:32:51.720Z,14.63
2023-09-07T18:35:19.141Z,14.56
2023-09-07T18:37:46.905Z,14.48
2023-09-07T18:40:14.023Z,14.37
2023-09-07T18:42:41.417Z,14.32
2023-09-07T18:45:09.801Z,14.26
2023-09-07T18:47:38.906Z,14.19
2023-09-07T18:50:08.998Z,14.10
2023-09-07T18:52:38.231Z,14.02
2023-09-07T18:55:09.319Z,13.98
2023-09-07T18:57:36.612Z,13.97
2023-09-07T19:00:06.097Z,13.96
2023-09-07T19:02:33.385Z,13.93
2023-09-07T19:05:00.824Z,13.87
2023-09-07T19:07:28.229Z,13.79
2023-09-07T19:09:56.736Z,13.73
2023-09-07T19:12:24.181Z,13.68
2023-09-07T19:14:51.318Z,13.63
2023-09-07T19:17:19.535Z,13.61
2023-09-07T19:19:48.321Z,13.58
2023-09-07T19:22:15.325Z,13.52
2023-09-07T19:24:43.624Z,13.49
2023-09-07T19:27:10.887Z,13.46
2023-09-07T19:29:41.324Z,13.42
2023-09-07T19:32:09.193Z,13.37
2023-09-07T19:34:37.091Z,13.30
2023-09-07T19:37:04.455Z,13.24
2023-09-07T19:39:31.564Z,13.20
2023-09-07T19:41:59.015Z,13.15
2023-09-07T19:44:26.845Z,13.06
2023-09-07T19:46:54.860Z,13.00
2023-09-07T19:49:23.192Z,12.96
2023-09-07T19:51:50.870Z,12.93
2023-09-07T19:54:18.369Z,12.89
2023-09-07T19:56:45.872Z,12.90
2023-09-07T19:59:13.354Z,12.91
2023-09-07T20:02:00.063Z,12.89
2023-09-07T20:04:27.719Z,12.87
2023-09-07T20:06:55.888Z,12.87
2023-09-07T20:09:23.003Z,12.83
2023-09-07T20:11:50.187Z,12.83
2023-09-07T20:14:17.670Z,12.86
2023-09-07T20:16:45.351Z,12.87
2023-09-07T20:19:13.945Z,12.87
2023-09-07T20:21:41.076Z,12.88
2023-09-07T20:24:09.949Z,12.91
2023-09-07T20:26:37.340Z,12.91
2023-09-07T20:29:07.651Z,12.88
2023-09-07T20:31:34.860Z,12.87
2023-09-07T20:34:01.853Z,12.82
2023-09-07T20:36:28.999Z,12.78
2023-09-07T20:38:56.189Z,12.75
2023-09-07T20:41:23.333Z,12.74
2023-09-07T20:43:50.390Z,12.72
2023-09-07T20:46:17.606Z,12.71
2023-09-07T20:48:44.795Z,12.69
2023-09-07T20:51:11.832Z,12.67
2023-09-07T20:53:38.989Z,12.62
2023-09-07T20:56:06.048Z,12.57
2023-09-07T20:58:33.429Z,12.52
2023-09-07T21:01:04.029Z,12.46
2023-09-07T21:03:31.910Z,12.43
2023-09-07T21:05:59.098Z,12.42
2023-09-07T21:08:26.302Z,12.43
2023-09-07T21:10:54.982Z,12.42
2023-09-07T21:13:22.013Z,12.38
2023-09-07T21:15:49.204Z,12.36
2023-09-07T21:18:16.501Z,12.36
2023-09-07T21:20:43.718Z,12.35
2023-09-07T21:23:12.199Z,12.33
2023-09-07T21:25:39.412Z,12.31
2023-09-07T21:28:06.973Z,12.27
2023-09-07T21:30:34.142Z,12.22
2023-09-07T21:33:01.404Z,12.19
2023-09-07T21:35:28.459Z,12.13
2023-09-07T21:37:55.739Z,12.10
2023-09-07T21:40:23.121Z,12.05
2023-09-07T21:42:50.231Z,12.01
2023-09-07T21:45:17.155Z,11.98
2023-09-07T21:47:44.109Z,11.94
2023-09-07T21:50:11.259Z,11.95
2023-09-07T21:52:38.244Z,11.96
2023-09-07T21:55:05.589Z,11.94
2023-09-07T21:57:32.844Z,11.94
2023-09-07T21:59:59.798Z,11.94
2023-09-07T22:02:27.278Z,11.93
2023-09-07T22:04:54.448Z,11.92
2023-09-07T22:07:21.908Z,11.90
2023-09-07T22:09:49.634Z,11.85
2023-09-07T22:12:16.804Z,11.82
2023-09-07T22:14:43.686Z,11.82
2023-09-07T22:17:12.813Z,11.81
2023-09-07T22:19:40.314Z,11.77
2023-09-07T22:22:07.455Z,11.73
2023-09-07T22:24:34.865Z,11.69
2023-09-07T22:27:01.902Z,11.65
2023-09-07T22:29:29.176Z,11.62
2023-09-07T22:31:56.329Z,11.59
2023-09-07T22:34:23.367Z,11.59
2023-09-07T22:36:50.626Z,11.59
2023-09-07T22:39:17.552Z,11.58
2023-09-07T22:41:44.601Z,11.57
2023-09-07T22:44:11.920Z,11.56
2023-09-07T22:46:39.049Z,11.56
2023-09-07T22:49:05.974Z,11.52
2023-09-07T22:51:33.225Z,11.50
2023-09-07T22:54:00.330Z,11.50
2023-09-07T22:56:27.402Z,11.46
2023-09-07T22:58:54.543Z,11.40
2023-09-07T23:01:21.484Z,11.39
2023-09-07T23:03:48.523Z,11.35
2023-09-07T23:06:15.624Z,11.32
2023-09-07T23:08:43.913Z,11.29
2023-09-07T23:11:13.153Z,11.25
2023-09-07T23:13:40.827Z,11.23
2023-09-07T23:16:08.329Z,11.22
2023-09-07T23:18:35.676Z,11.23
2023-09-07T23:21:02.970Z,11.23
2023-09-07T23:23:30.995Z,11.21
2023-09-07T23:25:58.084Z,11.18
2023-09-07T23:28:25.136Z,11.14
2023-09-07T23:30:52.366Z,11.13
2023-09-07T23:33:19.309Z,11.10
2023-09-07T23:35:46.324Z,11.07
2023-09-07T23:38:13.535Z,11.04
2023-09-07T23:40:40.517Z,11.04
2023-09-07T23:43:07.645Z,11.05
2023-09-07T23:45:34.737Z,11.07
2023-09-07T23:48:01.908Z,11.05
2023-09-07T23:50:29.089Z,11.03
2023-09-07T23:52:56.066Z,11.01
2023-09-07T23:55:23.019Z,10.98
2023-09-07T23:57:50.144Z,10.92
